Latest Weather Observations for Arlington Reef

IDQ60801

Issued at 2:05 pm EST Thursday 24 July 2014 (issued every 30 minutes, with the page automatically refreshed every 10 minutes)

About weather observations | Map of weather stations | Latest weather observations for QLD | Other Formats
Station Details ID: 200879 Name: ARLINGTON REEF Lat: -16.72 Lon: 146.11 Height: 0.0 m
Data from the previous 72 hours. | See also: Recent months at Arlington Reef
Date/Time
EST
Temp
°C
App
Temp
°C
Dew
Point
Rel
Hum
%
Delta-T
°C
Wind Press
QNH
hPa
Press
MSL
hPa
Rain
since 9 am
mm
Dir
 
Spd
km/h
Gust
km/h
Spd
kts
Gust
kts
24/02:00pm - - - - - S 20 22 11 12 1016.4 1016.4 -
24/01:30pm - - - - - S 15 19 8 10 1016.8 - -
24/01:00pm - - - - - S 20 24 11 13 1017.0 1017.0 -
24/12:30pm - - - - - S 24 32 13 17 1017.4 - -
24/12:00pm - - - - - S 26 28 14 15 1017.7 1017.7 -
24/11:30am - - - - - S 30 33 16 18 1017.7 - -
24/11:00am - - - - - S 28 32 15 17 1017.9 1017.9 -
24/10:30am - - - - - S 28 33 15 18 1018.0 - -
24/10:00am - - - - - S 28 32 15 17 1018.0 1018.0 -
24/09:30am - - - - - S 26 32 14 17 1017.9 - -
24/09:00am - - - - - S 22 26 12 14 1017.6 1017.6 -
24/08:30am - - - - - S 22 26 12 14 1017.2 - -
24/08:00am - - - - - SSE 22 32 12 17 1016.8 1016.8 -
24/07:30am - - - - - SE 22 28 12 15 1016.4 - -
24/07:00am - - - - - SE 24 32 13 17 1016.1 1016.1 -
24/06:30am - - - - - SE 26 30 14 16 1015.9 - -
24/06:00am - - - - - SE 26 33 14 18 1015.7 1015.7 -
24/05:30am - - - - - SE 26 32 14 17 1015.6 - -
24/05:00am - - - - - SE 26 30 14 16 1015.5 1015.5 -
24/04:30am - - - - - SE 26 33 14 18 1015.5 - -
24/04:00am - - - - - SE 26 32 14 17 1015.5 1015.5 -
24/03:30am - - - - - SE 26 32 14 17 1015.5 - -
24/03:00am - - - - - SE 24 30 13 16 1015.7 1015.7 -
24/02:30am - - - - - ESE 24 28 13 15 1015.9 - -
24/02:00am - - - - - SE 26 30 14 16 1016.2 1016.2 -
24/01:30am - - - - - SE 26 32 14 17 1016.6 - -
24/01:00am - - - - - SE 24 30 13 16 1017.1 1017.1 -
24/12:30am - - - - - SE 24 30 13 16 1017.2 - -
24/12:00am - - - - - SSE 24 28 13 15 1017.5 1017.5 -
 
Date/Time
EST
Temp
°C
App
Temp
°C
Dew
Point
Rel
Hum
%
Delta-T
°C
Wind Press
QNH
hPa
Press
MSL
hPa
Rain
since 9 am
mm
Dir
 
Spd
km/h
Gust
km/h
Spd
kts
Gust
kts
23/11:30pm - - - - - SE 26 30 14 16 1017.5 - -
23/11:00pm - - - - - SE 24 33 13 18 1017.6 1017.6 -
23/10:30pm - - - - - SSE 28 32 15 17 1017.6 - -
23/10:00pm - - - - - SE 30 35 16 19 1017.6 1017.6 -
23/09:30pm - - - - - SSE 33 41 18 22 1017.5 - -
23/09:00pm - - - - - SSE 32 37 17 20 1017.4 1017.4 -
23/08:30pm - - - - - SSE 32 37 17 20 1017.1 - -
23/08:00pm - - - - - SSE 32 37 17 20 1016.9 1016.9 -
23/07:30pm - - - - - SSE 33 39 18 21 1016.6 - -
23/07:00pm - - - - - SE 32 37 17 20 1016.3 1016.3 -
23/06:30pm - - - - - SSE 32 37 17 20 1016.1 - -
23/06:00pm - - - - - SSE 32 37 17 20 1015.9 1015.9 -
23/05:30pm - - - - - SE 30 37 16 20 1015.6 - -
23/05:00pm - - - - - SSE 32 39 17 21 1015.2 1015.2 -
23/04:30pm - - - - - SSE 33 41 18 22 1015.0 - -
23/04:00pm - - - - - S 33 37 18 20 1014.8 1014.8 -
23/03:30pm - - - - - S 33 39 18 21 1014.8 - -
23/03:00pm - - - - - S 32 37 17 20 1014.9 1014.9 -
23/02:30pm - - - - - S 32 37 17 20 1015.0 - -
23/02:00pm - - - - - S 30 35 16 19 1015.1 1015.1 -
23/01:30pm - - - - - S 33 39 18 21 1015.3 - -
23/01:00pm - - - - - S 32 37 17 20 1015.6 1015.6 -
23/12:30pm - - - - - S 32 37 17 20 1016.0 - -
23/12:00pm - - - - - S 32 35 17 19 1016.3 1016.3 -
23/11:30am - - - - - S 32 39 17 21 1016.5 - -
23/11:00am - - - - - S 33 39 18 21 1016.9 1016.9 -
23/10:30am - - - - - S 32 37 17 20 1017.2 - -
23/10:00am - - - - - S 33 39 18 21 1017.5 1017.5 -
23/09:30am - - - - - S 30 33 16 18 1017.7 - -
23/09:00am - - - - - S 28 33 15 18 1017.8 1017.8 -
23/08:30am - - - - - S 28 33 15 18 1017.7 - -
23/08:00am - - - - - S 26 32 14 17 1017.4 1017.4 -
23/07:30am - - - - - S 24 30 13 16 1017.1 - -
23/07:00am - - - - - S 24 30 13 16 1016.8 1016.8 -
23/06:30am - - - - - S 24 30 13 16 1016.4 - -
23/06:00am - - - - - S 24 30 13 16 1016.1 1016.1 -
23/05:30am - - - - - S 26 30 14 16 1015.9 - -
23/05:00am - - - - - S 26 30 14 16 1015.8 1015.8 -
23/04:30am - - - - - S 26 30 14 16 1015.7 - -
23/04:00am - - - - - S 26 30 14 16 1015.8 1015.8 -
23/03:30am - - - - - S 26 30 14 16 1015.9 - -
23/03:00am - - - - - S 24 28 13 15 1016.2 1016.2 -
23/02:30am - - - - - S 24 28 13 15 1016.5 - -
23/02:00am - - - - - S 26 30 14 16 1016.7 1016.7 -
23/01:30am - - - - - S 26 33 14 18 1016.9 - -
23/01:00am - - - - - S 26 32 14 17 1017.0 1017.0 -
23/12:30am - - - - - S 26 33 14 18 1017.4 - -
23/12:00am - - - - - S 26 33 14 18 1017.3 1017.3 -
 
Date/Time
EST
Temp
°C
App
Temp
°C
Dew
Point
Rel
Hum
%
Delta-T
°C
Wind Press
QNH
hPa
Press
MSL
hPa
Rain
since 9 am
mm
Dir
 
Spd
km/h
Gust
km/h
Spd
kts
Gust
kts
22/11:30pm - - - - - S 28 33 15 18 1017.5 - -
22/11:00pm - - - - - S 26 32 14 17 1017.8 1017.8 -
22/10:30pm - - - - - S 30 33 16 18 1017.8 - -
22/10:00pm - - - - - S 30 35 16 19 1017.8 1017.8 -
22/09:30pm - - - - - S 26 32 14 17 1017.9 - -
22/09:00pm - - - - - S 26 30 14 16 1017.9 1017.9 -
22/08:30pm - - - - - S 26 32 14 17 1017.8 - -
22/08:00pm - - - - - S 24 30 13 16 1017.7 1017.7 -
22/07:30pm - - - - - S 24 30 13 16 1017.5 - -
22/07:00pm - - - - - S 24 32 13 17 1017.1 1017.1 -
22/06:30pm - - - - - S 28 32 15 17 1016.7 - -
22/06:00pm - - - - - S 30 35 16 19 1016.3 1016.3 -
22/05:30pm - - - - - S 26 32 14 17 1016.2 - -
22/05:00pm - - - - - S 28 33 15 18 1015.9 1015.9 -
22/04:30pm - - - - - S 28 33 15 18 1015.9 - -
22/04:00pm - - - - - S 26 30 14 16 1015.9 1015.9 -
22/03:30pm - - - - - S 24 30 13 16 1015.8 - -
22/03:00pm - - - - - S 24 30 13 16 1015.9 1015.9 -
22/02:30pm - - - - - SSE 24 30 13 16 1016.0 - -
22/02:00pm - - - - - S 24 30 13 16 1016.3 1016.3 -
22/01:30pm - - - - - S 24 28 13 15 1016.6 - -
22/01:00pm - - - - - S 24 30 13 16 1017.1 1017.1 -
22/12:30pm - - - - - S 26 32 14 17 1017.8 - -
22/12:00pm - - - - - S 24 28 13 15 1018.4 1018.4 -
22/11:30am - - - - - S 22 28 12 15 1018.9 - -
22/11:00am - - - - - S 22 26 12 14 1019.3 1019.3 -
22/10:30am - - - - - S 22 26 12 14 1019.5 - -
22/10:00am - - - - - S 22 30 12 16 1019.6 1019.6 -
22/09:30am - - - - - S 24 28 13 15 1019.6 - -
22/09:00am - - - - - S 22 28 12 15 1019.6 1019.6 -
22/08:30am - - - - - S 22 28 12 15 1019.3 - -
22/08:00am - - - - - S 22 28 12 15 1019.1 1019.1 -
22/07:30am - - - - - S 20 26 11 14 1018.9 - -
22/07:00am - - - - - SSE 19 26 10 14 1018.7 1018.7 -
22/06:30am - - - - - SSE 20 24 11 13 1018.3 - -
22/06:00am - - - - - SSE 20 28 11 15 1018.1 1018.1 -
22/05:30am - - - - - SSE 22 28 12 15 1018.0 - -
22/05:00am - - - - - SE 24 32 13 17 1017.9 1017.9 -
22/04:30am - - - - - SSE 24 30 13 16 1017.9 - -
22/04:00am - - - - - SSE 24 30 13 16 1017.9 1017.9 -
22/03:30am - - - - - SE 24 32 13 17 1017.9 - -
22/03:00am - - - - - SE 20 26 11 14 1018.0 1018.0 -
22/02:30am - - - - - SE 19 26 10 14 1018.3 - -
22/02:00am - - - - - SE 20 28 11 15 1018.6 1018.6 -
22/01:30am - - - - - SSE 22 32 12 17 1018.7 - -
22/01:00am - - - - - SSE 22 26 12 14 1018.9 1018.9 -
22/12:30am - - - - - S 17 24 9 13 1019.1 - -
22/12:00am - - - - - S 22 28 12 15 1019.2 1019.2 -
 
Date/Time
EST
Temp
°C
App
Temp
°C
Dew
Point
Rel
Hum
%
Delta-T
°C
Wind Press
QNH
hPa
Press
MSL
hPa
Rain
since 9 am
mm
Dir
 
Spd
km/h
Gust
km/h
Spd
kts
Gust
kts
21/11:30pm - - - - - S 24 28 13 15 1019.2 - -
21/11:00pm - - - - - S 28 33 15 18 1019.5 1019.5 -
21/10:30pm - - - - - S 26 32 14 17 1019.6 - -
21/10:00pm - - - - - S 26 32 14 17 1019.4 1019.4 -
21/09:30pm - - - - - S 20 28 11 15 1019.5 - -
21/09:00pm - - - - - S 22 30 12 16 1019.3 1019.3 -
21/08:30pm - - - - - SSE 22 26 12 14 1019.2 - -
21/08:00pm - - - - - SSE 24 28 13 15 1018.7 1018.7 -
21/07:30pm - - - - - SSE 24 30 13 16 1018.6 - -
21/07:00pm - - - - - SSE 24 30 13 16 1018.3 1018.3 -
21/06:30pm - - - - - SSE 24 30 13 16 1018.0 - -
21/06:00pm - - - - - SSE 24 32 13 17 1017.8 1017.8 -
21/05:30pm - - - - - SSE 28 32 15 17 1017.5 - -
21/05:00pm - - - - - S 28 35 15 19 1017.3 1017.3 -
21/04:30pm - - - - - S 28 33 15 18 1017.1 - -
21/04:00pm - - - - - S 30 35 16 19 1017.2 1017.2 -
21/03:30pm - - - - - S 30 35 16 19 1017.0 - -
21/03:00pm - - - - - S 32 37 17 20 1017.1 1017.1 -
21/02:30pm - - - - - S 30 33 16 18 1017.3 - -

Other Formats:

Comma delimited format used in spreadsheet applications
http://www.bom.gov.au/fwo/IDQ60801/IDQ60801.94284.axf

JavaScript Object Notation format (JSON) in row-major order
http://www.bom.gov.au/fwo/IDQ60801/IDQ60801.94284.json